Time;durP1;ratioP1;P1;durP2;ratioP2;P2;SDS_P1;SDS_P2;PMS_P1;PMS_P2;Temp;Humidity;BMP_temperature;BMP_pressure;BME280_temperature;BME280_humidity;BME280_pressure;Samples;Min_cycle;Max_cycle;Signal;HPM_P1;HPM_P2
2021/06/29 00:00:33;;;;;;;19.02;10.98;;;;;;;;;;5118687;28;20367;-74
2021/06/29 00:03:01;;;;;;;16.48;10.90;;;;;;;;;;5110475;28;20038;-74
2021/06/29 00:05:28;;;;;;;16.08;10.98;;;;;;;;;;5103208;28;20012;-75
2021/06/29 00:07:53;;;;;;;21.00;11.23;;;;;;;;;;5125237;28;20106;-75
2021/06/29 00:10:19;;;;;;;22.35;10.90;;;;;;;;;;5130630;28;20114;-74
2021/06/29 00:12:45;;;;;;;19.10;11.20;;;;;;;;;;5110411;28;20043;-75
2021/06/29 00:15:12;;;;;;;22.35;11.20;;;;;;;;;;5118108;28;20119;-75
2021/06/29 00:17:38;;;;;;;15.85;10.77;;;;;;;;;;5114127;27;20055;-75
2021/06/29 00:20:04;;;;;;;16.63;10.73;;;;;;;;;;5133001;27;20054;-75
2021/06/29 00:22:30;;;;;;;20.23;10.83;;;;;;;;;;5131700;27;20027;-75
2021/06/29 00:24:56;;;;;;;16.08;10.90;;;;;;;;;;5113986;28;20046;-74
2021/06/29 00:27:22;;;;;;;19.15;9.60;;;;;;;;;;5094957;28;20466;-74
2021/06/29 00:29:48;;;;;;;17.73;8.60;;;;;;;;;;5113894;28;20103;-76
2021/06/29 00:32:14;;;;;;;12.68;8.55;;;;;;;;;;5113378;28;20072;-74
2021/06/29 00:34:40;;;;;;;18.90;8.90;;;;;;;;;;5113757;28;20028;-74
2021/06/29 00:37:06;;;;;;;15.18;8.38;;;;;;;;;;5113340;27;20027;-74
2021/06/29 00:39:32;;;;;;;12.93;7.97;;;;;;;;;;5133856;27;20098;-75
2021/06/29 00:41:58;;;;;;;14.45;8.48;;;;;;;;;;5114164;27;20080;-74
2021/06/29 00:44:24;;;;;;;15.60;7.93;;;;;;;;;;5122901;27;20038;-74
2021/06/29 00:46:52;;;;;;;11.68;7.88;;;;;;;;;;5133060;27;20039;-75
2021/06/29 00:49:18;;;;;;;14.70;8.30;;;;;;;;;;5131330;27;20027;-74
2021/06/29 00:51:44;;;;;;;13.80;8.85;;;;;;;;;;5126800;27;20055;-75
2021/06/29 00:54:10;;;;;;;12.13;8.02;;;;;;;;;;5131632;27;20094;-75
2021/06/29 00:56:37;;;;;;;17.13;8.80;;;;;;;;;;5120455;27;20039;-74
2021/06/29 00:59:04;;;;;;;12.60;8.10;;;;;;;;;;5128362;27;20450;-75
2021/06/29 01:01:30;;;;;;;12.32;8.23;;;;;;;;;;5103810;28;20449;-75
2021/06/29 01:03:56;;;;;;;16.17;9.40;;;;;;;;;;5113691;28;20036;-75
2021/06/29 01:06:22;;;;;;;14.98;9.05;;;;;;;;;;5128882;27;20035;-75
2021/06/29 01:08:48;;;;;;;16.90;9.32;;;;;;;;;;5116091;27;20130;-74
2021/06/29 01:11:14;;;;;;;12.10;8.75;;;;;;;;;;5128522;27;20149;-74
2021/06/29 01:13:41;;;;;;;14.60;8.82;;;;;;;;;;5095884;28;20032;-74
2021/06/29 01:16:08;;;;;;;14.70;9.27;;;;;;;;;;5119319;27;20102;-74
2021/06/29 01:18:34;;;;;;;16.60;8.20;;;;;;;;;;5116177;27;20475;-75
2021/06/29 01:21:00;;;;;;;13.50;8.55;;;;;;;;;;5095008;28;20161;-75
2021/06/29 01:23:28;;;;;;;16.27;9.80;;;;;;;;;;5112619;27;20397;-74
2021/06/29 01:31:17;;;;;;;15.98;10.10;;;;;;;;;;5131119;27;20811;-73
2021/06/29 01:33:44;;;;;;;12.70;9.00;;;;;;;;;;5129765;27;20027;-75
2021/06/29 01:36:11;;;;;;;18.00;9.75;;;;;;;;;;5130971;27;20030;-74
2021/06/29 01:38:37;;;;;;;13.02;9.63;;;;;;;;;;5112206;28;20031;-75
2021/06/29 01:41:03;;;;;;;14.80;10.10;;;;;;;;;;5114154;27;20049;-74
2021/06/29 01:43:32;;;;;;;16.15;10.57;;;;;;;;;;5113193;27;20085;-74
2021/06/29 01:45:59;;;;;;;18.67;10.02;;;;;;;;;;5113606;27;20354;-74
2021/06/29 01:48:25;;;;;;;20.42;10.88;;;;;;;;;;5115450;27;20027;-75
2021/06/29 01:50:56;;;;;;;17.90;10.75;;;;;;;;;;5132133;27;20113;-75
2021/06/29 01:53:22;;;;;;;15.15;10.70;;;;;;;;;;5107636;28;20409;-74
2021/06/29 01:55:48;;;;;;;15.77;10.80;;;;;;;;;;5112770;27;20035;-74
2021/06/29 01:58:22;;;;;;;20.92;11.68;;;;;;;;;;5124970;27;20334;-76
2021/06/29 02:00:48;;;;;;;18.30;11.25;;;;;;;;;;5126582;27;20027;-75
2021/06/29 02:03:14;;;;;;;17.10;11.52;;;;;;;;;;5114314;27;20041;-75
2021/06/29 02:05:39;;;;;;;18.63;11.60;;;;;;;;;;5112303;28;20023;-75
2021/06/29 02:08:06;;;;;;;20.38;11.80;;;;;;;;;;5111565;28;20062;-75
2021/06/29 02:10:32;;;;;;;26.17;11.55;;;;;;;;;;5111823;28;20478;-74
2021/06/29 02:12:58;;;;;;;20.05;12.88;;;;;;;;;;5120429;27;20037;-74
2021/06/29 02:15:24;;;;;;;20.27;11.90;;;;;;;;;;5121207;27;20382;-74
2021/06/29 02:17:51;;;;;;;18.23;12.18;;;;;;;;;;5113104;27;20023;-75
2021/06/29 02:20:17;;;;;;;17.88;10.98;;;;;;;;;;5132487;27;20035;-75
2021/06/29 02:22:45;;;;;;;16.17;11.38;;;;;;;;;;5130794;27;20054;-74
2021/06/29 02:25:11;;;;;;;15.23;11.60;;;;;;;;;;5131124;27;20076;-74
2021/06/29 02:27:37;;;;;;;17.52;11.25;;;;;;;;;;5131791;27;20110;-74
2021/06/29 02:30:03;;;;;;;16.90;11.50;;;;;;;;;;5132031;27;20102;-74
2021/06/29 02:32:29;;;;;;;17.80;11.57;;;;;;;;;;5121733;27;20044;-75
2021/06/29 02:34:55;;;;;;;18.88;11.18;;;;;;;;;;5129145;27;20032;-75
2021/06/29 02:37:21;;;;;;;16.33;10.82;;;;;;;;;;5129544;27;20074;-76
2021/06/29 02:39:47;;;;;;;18.65;10.10;;;;;;;;;;5113191;27;20119;-75
2021/06/29 02:42:13;;;;;;;22.92;10.35;;;;;;;;;;5111602;27;20126;-75
2021/06/29 02:44:41;;;;;;;17.30;10.60;;;;;;;;;;5110406;28;20030;-74
2021/06/29 02:47:08;;;;;;;19.35;11.18;;;;;;;;;;5118018;27;20027;-75
2021/06/29 02:49:34;;;;;;;15.70;11.25;;;;;;;;;;5121459;27;20024;-75
2021/06/29 02:52:00;;;;;;;28.65;11.30;;;;;;;;;;5110596;28;20076;-74
2021/06/29 02:54:26;;;;;;;14.77;10.48;;;;;;;;;;5110258;28;20058;-75
2021/06/29 02:56:52;;;;;;;17.77;11.27;;;;;;;;;;5110431;28;20027;-75
2021/06/29 02:59:18;;;;;;;15.73;11.07;;;;;;;;;;5093956;28;20855;-75
2021/06/29 03:01:45;;;;;;;16.88;10.70;;;;;;;;;;5110581;27;20161;-75
2021/06/29 03:04:11;;;;;;;21.98;11.15;;;;;;;;;;5112142;27;20039;-74
2021/06/29 03:06:37;;;;;;;17.10;11.43;;;;;;;;;;5114545;27;20019;-75
2021/06/29 03:09:05;;;;;;;16.80;11.55;;;;;;;;;;5110979;28;20095;-74
2021/06/29 03:11:31;;;;;;;28.23;11.25;;;;;;;;;;5110688;28;20102;-74
2021/06/29 03:13:57;;;;;;;15.02;10.57;;;;;;;;;;5110936;28;20023;-75
2021/06/29 03:16:24;;;;;;;14.20;10.88;;;;;;;;;;5110464;27;20040;-75
2021/06/29 03:18:50;;;;;;;17.83;10.75;;;;;;;;;;5113103;27;20034;-74
2021/06/29 03:21:16;;;;;;;17.60;10.50;;;;;;;;;;5131318;27;20048;-74
2021/06/29 03:23:42;;;;;;;20.38;11.27;;;;;;;;;;5115785;27;20047;-74
2021/06/29 03:26:08;;;;;;;16.73;11.30;;;;;;;;;;5117448;28;20046;-74
2021/06/29 03:28:34;;;;;;;16.48;11.20;;;;;;;;;;5115770;28;20034;-74
2021/06/29 03:31:01;;;;;;;18.23;12.55;;;;;;;;;;5112158;28;20030;-74
2021/06/29 03:33:27;;;;;;;17.60;13.27;;;;;;;;;;5112224;28;20477;-74
2021/06/29 03:35:53;;;;;;;17.30;12.27;;;;;;;;;;5130572;28;20119;-74
2021/06/29 03:38:19;;;;;;;17.27;12.57;;;;;;;;;;5129373;28;20031;-74
2021/06/29 03:40:45;;;;;;;18.95;13.32;;;;;;;;;;5130438;28;20039;-74
2021/06/29 03:43:11;;;;;;;22.08;12.77;;;;;;;;;;5120305;28;20423;-74
2021/06/29 03:45:37;;;;;;;19.13;12.98;;;;;;;;;;5121880;28;20111;-74
2021/06/29 03:48:03;;;;;;;17.55;12.02;;;;;;;;;;5126457;28;20038;-75
2021/06/29 03:50:29;;;;;;;22.85;12.80;;;;;;;;;;5114695;28;20020;-74
2021/06/29 03:52:55;;;;;;;16.63;13.07;;;;;;;;;;5114294;28;20027;-74
2021/06/29 03:55:22;;;;;;;21.20;12.35;;;;;;;;;;5128447;27;20043;-75
2021/06/29 03:57:48;;;;;;;15.68;11.77;;;;;;;;;;5134071;27;20123;-74
2021/06/29 04:00:14;;;;;;;19.10;11.20;;;;;;;;;;5131136;27;20059;-75
2021/06/29 04:02:40;;;;;;;16.60;11.25;;;;;;;;;;5095470;28;20092;-74
2021/06/29 04:05:07;;;;;;;18.38;11.02;;;;;;;;;;5113048;27;20458;-75
2021/06/29 04:07:33;;;;;;;25.13;11.70;;;;;;;;;;5114679;28;20040;-74
2021/06/29 04:09:59;;;;;;;15.63;10.68;;;;;;;;;;5113511;27;20034;-74
2021/06/29 04:12:28;;;;;;;16.13;10.82;;;;;;;;;;5133869;27;20023;-75
2021/06/29 04:14:55;;;;;;;18.23;9.63;;;;;;;;;;5134172;27;20047;-76
2021/06/29 04:17:21;;;;;;;19.70;10.10;;;;;;;;;;5132204;27;20102;-76
2021/06/29 04:19:47;;;;;;;17.33;10.20;;;;;;;;;;5115040;27;20054;-75
2021/06/29 04:22:13;;;;;;;18.83;10.77;;;;;;;;;;5127401;27;20114;-76
2021/06/29 04:24:39;;;;;;;16.55;9.75;;;;;;;;;;5115852;27;20114;-74
2021/06/29 04:27:05;;;;;;;15.88;10.77;;;;;;;;;;5134236;27;20469;-75
2021/06/29 04:29:31;;;;;;;15.68;10.40;;;;;;;;;;5133625;27;20035;-76
2021/06/29 04:31:57;;;;;;;18.15;10.18;;;;;;;;;;5130362;27;20116;-75
2021/06/29 04:34:23;;;;;;;13.45;10.60;;;;;;;;;;5114021;28;20062;-75
2021/06/29 04:36:49;;;;;;;20.02;11.27;;;;;;;;;;5128509;27;20019;-75
2021/06/29 04:39:15;;;;;;;15.18;11.00;;;;;;;;;;5123841;27;20537;-75
2021/06/29 04:41:41;;;;;;;13.77;11.00;;;;;;;;;;5112708;27;20042;-76
2021/06/29 04:44:07;;;;;;;33.60;12.73;;;;;;;;;;5119630;27;20101;-75
2021/06/29 04:46:33;;;;;;;18.63;11.38;;;;;;;;;;5129010;27;20039;-76
2021/06/29 04:48:59;;;;;;;24.02;11.85;;;;;;;;;;5114746;27;20067;-75
2021/06/29 04:51:25;;;;;;;17.00;10.60;;;;;;;;;;5112735;27;20120;-75
2021/06/29 04:53:51;;;;;;;16.83;11.55;;;;;;;;;;5112514;27;20035;-75
2021/06/29 04:56:17;;;;;;;19.13;11.35;;;;;;;;;;5126095;27;20034;-75
2021/06/29 04:58:53;;;;;;;16.08;10.80;;;;;;;;;;5134092;27;20045;-76
2021/06/29 05:01:22;;;;;;;14.15;10.95;;;;;;;;;;5117989;27;20039;-74
2021/06/29 05:03:48;;;;;;;17.92;11.48;;;;;;;;;;5119730;27;20374;-74
2021/06/29 05:06:19;;;;;;;12.77;11.00;;;;;;;;;;5121908;27;20030;-75
2021/06/29 05:08:45;;;;;;;17.08;11.27;;;;;;;;;;5120382;27;20026;-75
2021/06/29 05:11:11;;;;;;;14.63;10.50;;;;;;;;;;5119526;27;20036;-75
2021/06/29 05:13:37;;;;;;;17.02;11.55;;;;;;;;;;5132582;27;20106;-75
2021/06/29 05:16:03;;;;;;;18.35;11.27;;;;;;;;;;5131519;27;20431;-75
2021/06/29 05:18:29;;;;;;;19.95;11.23;;;;;;;;;;5127149;27;20030;-74
2021/06/29 05:20:55;;;;;;;17.15;11.27;;;;;;;;;;5132551;27;20102;-75
2021/06/29 05:23:22;;;;;;;13.30;10.88;;;;;;;;;;5112702;27;20161;-75
2021/06/29 05:25:48;;;;;;;20.98;12.40;;;;;;;;;;5111391;28;20111;-75
2021/06/29 05:28:14;;;;;;;24.02;10.93;;;;;;;;;;5112887;28;20556;-75
2021/06/29 05:30:40;;;;;;;25.23;10.80;;;;;;;;;;5113252;27;20081;-76
2021/06/29 05:33:06;;;;;;;20.00;10.18;;;;;;;;;;5130930;27;20149;-76
2021/06/29 05:35:32;;;;;;;14.93;10.40;;;;;;;;;;5111693;27;20494;-75
2021/06/29 05:38:00;;;;;;;16.40;10.45;;;;;;;;;;5113669;27;20032;-75
2021/06/29 05:40:26;;;;;;;13.60;9.73;;;;;;;;;;5118810;27;20027;-75
2021/06/29 05:42:52;;;;;;;14.75;10.70;;;;;;;;;;5132245;27;20494;-75
2021/06/29 05:45:18;;;;;;;20.42;10.52;;;;;;;;;;5108910;27;20028;-77
2021/06/29 05:47:44;;;;;;;17.45;9.93;;;;;;;;;;5112298;27;20431;-76
2021/06/29 05:50:11;;;;;;;13.43;10.13;;;;;;;;;;5112217;28;20036;-76
2021/06/29 05:52:37;;;;;;;14.50;9.65;;;;;;;;;;5094291;28;20385;-76
2021/06/29 05:55:03;;;;;;;15.82;10.23;;;;;;;;;;5111868;27;20115;-76
2021/06/29 05:57:29;;;;;;;15.88;9.90;;;;;;;;;;5111214;28;20055;-76
2021/06/29 05:59:55;;;;;;;12.20;9.73;;;;;;;;;;5112592;27;20418;-77
2021/06/29 06:02:21;;;;;;;19.70;10.73;;;;;;;;;;5095051;27;20031;-76
2021/06/29 06:04:47;;;;;;;20.67;10.57;;;;;;;;;;5122259;27;20035;-75
2021/06/29 06:07:13;;;;;;;20.27;10.18;;;;;;;;;;5111247;27;20106;-76
2021/06/29 06:09:39;;;;;;;17.75;10.73;;;;;;;;;;5110873;28;20057;-75
2021/06/29 06:12:05;;;;;;;19.23;11.40;;;;;;;;;;5109694;28;20130;-74
2021/06/29 06:14:31;;;;;;;20.45;11.07;;;;;;;;;;5107709;28;20133;-75
2021/06/29 06:16:57;;;;;;;16.10;10.73;;;;;;;;;;5110966;28;20106;-77
2021/06/29 06:19:23;;;;;;;17.95;10.93;;;;;;;;;;5109701;27;20020;-77
2021/06/29 06:21:50;;;;;;;13.50;9.65;;;;;;;;;;5109523;28;20522;-77
2021/06/29 06:24:16;;;;;;;13.20;9.80;;;;;;;;;;5111595;28;20075;-76
2021/06/29 06:26:42;;;;;;;14.40;9.75;;;;;;;;;;5110835;28;20142;-75
2021/06/29 06:29:08;;;;;;;17.27;9.02;;;;;;;;;;5110918;28;20084;-77
2021/06/29 06:31:34;;;;;;;14.23;9.50;;;;;;;;;;5111269;28;20440;-76
2021/06/29 06:34:00;;;;;;;14.20;8.55;;;;;;;;;;5111331;28;20053;-76
2021/06/29 06:36:26;;;;;;;12.88;8.10;;;;;;;;;;5110990;28;20059;-76
2021/06/29 06:38:52;;;;;;;14.77;8.02;;;;;;;;;;5110109;28;20031;-76
2021/06/29 06:41:18;;;;;;;19.92;8.48;;;;;;;;;;5111156;28;20080;-76
2021/06/29 06:43:45;;;;;;;13.80;7.97;;;;;;;;;;5111597;27;20035;-75
2021/06/29 06:46:11;;;;;;;11.02;7.80;;;;;;;;;;5112413;27;20108;-76
2021/06/29 06:48:37;;;;;;;16.75;7.72;;;;;;;;;;5108820;28;20031;-76
2021/06/29 06:51:04;;;;;;;13.15;7.05;;;;;;;;;;5109462;28;20019;-76
2021/06/29 06:53:30;;;;;;;;;;;;;;;;;;5107792;28;20450;-75
2021/06/29 06:55:56;;;;;;;14.17;7.10;;;;;;;;;;5091130;28;19920;-76
2021/06/29 06:58:22;;;;;;;11.73;7.15;;;;;;;;;;5110566;28;20035;-75
2021/06/29 07:00:48;;;;;;;12.95;6.55;;;;;;;;;;5107473;28;20034;-75
2021/06/29 07:03:14;;;;;;;12.63;6.60;;;;;;;;;;5087561;28;20031;-75
2021/06/29 07:05:40;;;;;;;11.68;6.65;;;;;;;;;;5110108;28;20024;-76
2021/06/29 07:08:06;;;;;;;14.77;6.82;;;;;;;;;;5102740;28;20040;-75
2021/06/29 07:10:32;;;;;;;8.75;5.75;;;;;;;;;;5102573;28;20022;-77
2021/06/29 07:12:58;;;;;;;9.48;6.45;;;;;;;;;;5102961;27;20381;-78
2021/06/29 07:15:27;;;;;;;13.10;6.43;;;;;;;;;;5110823;28;20032;-77
2021/06/29 07:17:53;;;;;;;11.35;6.18;;;;;;;;;;5108460;28;20116;-76
2021/06/29 07:20:19;;;;;;;14.70;6.68;;;;;;;;;;5109748;28;20636;-79
2021/06/29 07:22:45;;;;;;;10.25;5.50;;;;;;;;;;5108088;28;20031;-78
2021/06/29 07:25:12;;;;;;;7.95;5.70;;;;;;;;;;5108777;28;20030;-80
2021/06/29 07:27:38;;;;;;;12.40;5.55;;;;;;;;;;5107992;28;20020;-80
2021/06/29 07:30:06;;;;;;;10.48;6.03;;;;;;;;;;5109443;28;20020;-79
2021/06/29 07:32:32;;;;;;;11.68;5.78;;;;;;;;;;5107235;28;20031;-78
2021/06/29 07:34:58;;;;;;;10.80;6.50;;;;;;;;;;5109966;28;20047;-78
2021/06/29 07:37:24;;;;;;;11.23;6.00;;;;;;;;;;5110740;28;20038;-79
2021/06/29 07:39:50;;;;;;;9.75;5.30;;;;;;;;;;5111630;28;20036;-79
2021/06/29 07:42:16;;;;;;;9.82;6.07;;;;;;;;;;5115089;28;20157;-76
2021/06/29 07:44:42;;;;;;;8.90;5.55;;;;;;;;;;5110328;28;20016;-76
2021/06/29 07:47:08;;;;;;;11.55;5.70;;;;;;;;;;5110646;28;20047;-75
2021/06/29 07:49:35;;;;;;;9.63;5.55;;;;;;;;;;5110523;28;20067;-75
2021/06/29 07:52:01;;;;;;;11.18;5.43;;;;;;;;;;5109680;28;20386;-74
2021/06/29 07:54:27;;;;;;;8.77;5.80;;;;;;;;;;5107323;28;20039;-75
2021/06/29 07:56:53;;;;;;;8.13;5.57;;;;;;;;;;5107074;28;20025;-76
2021/06/29 07:59:19;;;;;;;12.23;6.10;;;;;;;;;;5118058;28;20385;-76
2021/06/29 08:01:45;;;;;;;9.98;5.78;;;;;;;;;;5096266;28;20032;-76
2021/06/29 08:04:14;;;;;;;12.30;5.95;;;;;;;;;;5089766;28;20034;-74
2021/06/29 08:06:40;;;;;;;10.57;5.45;;;;;;;;;;5110165;28;20343;-74
2021/06/29 08:09:06;;;;;;;12.95;6.53;;;;;;;;;;5108465;28;20390;-73
2021/06/29 08:11:32;;;;;;;10.45;5.93;;;;;;;;;;5104320;28;20036;-74
2021/06/29 08:13:58;;;;;;;10.63;5.90;;;;;;;;;;5090830;28;20024;-72
2021/06/29 08:16:24;;;;;;;12.75;5.88;;;;;;;;;;5108310;28;20277;-76
2021/06/29 08:18:50;;;;;;;13.30;6.82;;;;;;;;;;5109694;28;20032;-76
2021/06/29 08:21:17;;;;;;;8.65;6.90;;;;;;;;;;5100557;28;20100;-73
2021/06/29 08:23:43;;;;;;;15.68;6.47;;;;;;;;;;5108621;28;20036;-73
2021/06/29 08:26:09;;;;;;;16.90;6.50;;;;;;;;;;5108272;28;20077;-75
2021/06/29 08:28:36;;;;;;;10.15;6.82;;;;;;;;;;5090520;28;20028;-77
2021/06/29 08:31:04;;;;;;;13.25;6.60;;;;;;;;;;5108668;28;20474;-73
2021/06/29 08:33:30;;;;;;;13.40;6.70;;;;;;;;;;5108418;28;20047;-74
2021/06/29 08:35:56;;;;;;;17.58;7.55;;;;;;;;;;5109517;28;20655;-75
2021/06/29 08:38:23;;;;;;;14.30;7.43;;;;;;;;;;5087393;28;20024;-75
2021/06/29 08:40:49;;;;;;;11.80;6.95;;;;;;;;;;5112949;28;20040;-74
2021/06/29 08:43:15;;;;;;;15.90;7.87;;;;;;;;;;5112745;28;20081;-75
2021/06/29 08:45:42;;;;;;;15.90;8.48;;;;;;;;;;5112731;28;20333;-73
2021/06/29 08:48:08;;;;;;;18.60;7.93;;;;;;;;;;5091939;28;20071;-74
2021/06/29 08:50:34;;;;;;;16.90;7.37;;;;;;;;;;5094667;28;20020;-76
2021/06/29 08:53:04;;;;;;;10.90;7.88;;;;;;;;;;5110705;28;20049;-76
2021/06/29 08:55:50;;;;;;;24.05;7.28;;;;;;;;;;5099182;28;20052;-76
2021/06/29 08:58:17;;;;;;;14.87;8.07;;;;;;;;;;5089784;28;20418;-76
2021/06/29 09:00:43;;;;;;;13.48;8.20;;;;;;;;;;5112573;28;20019;-77
2021/06/29 09:03:09;;;;;;;18.77;8.38;;;;;;;;;;5110281;28;20047;-77
2021/06/29 09:05:35;;;;;;;10.43;7.53;;;;;;;;;;5114569;27;20087;-82
2021/06/29 09:08:21;;;;;;;17.88;8.20;;;;;;;;;;5134337;27;20337;-81
2021/06/29 09:11:06;;;;;;;21.17;8.98;;;;;;;;;;5116781;27;20024;-81
2021/06/29 09:13:32;;;;;;;12.05;8.35;;;;;;;;;;5119299;27;20050;-81
2021/06/29 09:15:59;;;;;;;18.50;8.38;;;;;;;;;;5125700;27;20035;-81
2021/06/29 09:18:26;;;;;;;18.27;7.83;;;;;;;;;;5140286;27;20023;-79
2021/06/29 09:20:58;;;;;;;18.33;7.55;;;;;;;;;;5116004;27;20411;-79
2021/06/29 09:23:24;;;;;;;13.20;8.30;;;;;;;;;;5113900;27;20101;-76
2021/06/29 09:25:52;;;;;;;13.60;7.90;;;;;;;;;;5100896;28;20028;-77
2021/06/29 09:28:20;;;;;;;19.92;7.28;;;;;;;;;;5116178;27;20046;-75
2021/06/29 09:30:56;;;;;;;15.60;7.60;;;;;;;;;;5111554;27;20446;-76
2021/06/29 09:33:24;;;;;;;16.33;7.00;;;;;;;;;;5111239;27;20121;-75
2021/06/29 09:35:51;;;;;;;21.02;9.18;;;;;;;;;;5101000;28;20140;-76
2021/06/29 09:38:20;;;;;;;10.95;6.38;;;;;;;;;;5112300;28;20080;-76
2021/06/29 09:40:47;;;;;;;10.80;6.07;;;;;;;;;;5118472;27;20373;-75
2021/06/29 09:43:17;;;;;;;13.52;7.05;;;;;;;;;;5113476;27;20041;-76
2021/06/29 09:45:45;;;;;;;15.82;7.22;;;;;;;;;;5123064;27;20142;-77
2021/06/29 09:48:13;;;;;;;18.80;6.47;;;;;;;;;;5100792;27;20063;-76
2021/06/29 09:50:41;;;;;;;12.85;6.15;;;;;;;;;;5130445;27;20096;-76
2021/06/29 09:53:11;;;;;;;12.52;6.85;;;;;;;;;;5123075;27;20024;-77
2021/06/29 09:55:41;;;;;;;15.35;6.07;;;;;;;;;;5132794;27;20051;-76
2021/06/29 09:58:09;;;;;;;12.80;6.55;;;;;;;;;;5133212;27;20473;-78
2021/06/29 10:00:46;;;;;;;11.45;6.20;;;;;;;;;;5115680;27;20111;-78
2021/06/29 10:03:16;;;;;;;11.80;5.85;;;;;;;;;;5132147;27;20027;-78
2021/06/29 10:05:42;;;;;;;17.30;6.35;;;;;;;;;;5133089;27;20088;-79
2021/06/29 10:08:08;;;;;;;13.83;6.87;;;;;;;;;;5122032;27;20031;-77
2021/06/29 10:10:34;;;;;;;22.98;7.45;;;;;;;;;;5112631;28;20378;-78
2021/06/29 10:13:16;;;;;;;15.77;9.27;;;;;;;;;;5100579;28;20040;-76
2021/06/29 10:15:42;;;;;;;19.73;7.03;;;;;;;;;;5093975;28;20284;-77
2021/06/29 10:18:09;;;;;;;12.68;6.45;;;;;;;;;;5112684;28;20023;-77
2021/06/29 10:20:49;;;;;;;12.70;6.65;;;;;;;;;;5086117;27;20031;-77
2021/06/29 10:23:47;;;;;;;14.40;6.40;;;;;;;;;;5132297;27;20082;-76
2021/06/29 10:26:13;;;;;;;13.00;6.82;;;;;;;;;;5114392;27;20413;-78
2021/06/29 10:28:39;;;;;;;17.98;6.65;;;;;;;;;;5131285;27;20019;-77
2021/06/29 10:31:05;;;;;;;19.35;6.95;;;;;;;;;;5129300;27;20027;-75
2021/06/29 10:33:32;;;;;;;11.77;6.10;;;;;;;;;;5131525;27;20087;-76
2021/06/29 10:35:58;;;;;;;10.40;6.18;;;;;;;;;;5131439;27;20026;-76
2021/06/29 10:38:24;;;;;;;15.63;6.57;;;;;;;;;;5113477;27;20400;-76
2021/06/29 10:40:51;;;;;;;16.27;7.13;;;;;;;;;;5114619;27;20354;-77
2021/06/29 10:43:17;;;;;;;15.95;6.97;;;;;;;;;;5132287;27;20046;-78
2021/06/29 10:45:43;;;;;;;15.38;7.38;;;;;;;;;;5131287;27;20070;-77
2021/06/29 10:48:17;;;;;;;19.48;6.72;;;;;;;;;;5130061;27;20061;-78
2021/06/29 10:50:44;;;;;;;13.13;6.68;;;;;;;;;;5125471;27;20073;-77
2021/06/29 10:53:28;;;;;;;17.70;7.63;;;;;;;;;;5111373;28;20043;-78
2021/06/29 10:55:54;;;;;;;15.32;7.75;;;;;;;;;;5115606;27;20061;-78
2021/06/29 10:58:34;;;;;;;16.98;9.30;;;;;;;;;;5131731;27;20155;-78
2021/06/29 11:01:19;;;;;;;14.85;8.43;;;;;;;;;;5132444;27;20102;-77
2021/06/29 11:03:46;;;;;;;16.90;9.48;;;;;;;;;;5131678;27;20109;-77
2021/06/29 11:06:12;;;;;;;17.73;8.43;;;;;;;;;;5132321;27;20023;-78
2021/06/29 11:08:48;;;;;;;14.73;7.53;;;;;;;;;;5131265;27;20495;-77
2021/06/29 11:11:14;;;;;;;14.82;8.00;;;;;;;;;;5132274;27;20027;-77
2021/06/29 11:13:43;;;;;;;16.85;7.22;;;;;;;;;;5131926;27;20019;-77
2021/06/29 11:16:09;;;;;;;15.30;8.18;;;;;;;;;;5131418;27;20023;-78
2021/06/29 11:18:35;;;;;;;18.13;7.35;;;;;;;;;;5131261;27;20022;-77
2021/06/29 11:21:04;;;;;;;19.00;7.73;;;;;;;;;;5131354;27;20121;-77
2021/06/29 11:23:35;;;;;;;16.33;7.03;;;;;;;;;;5129100;27;20042;-77
2021/06/29 11:26:01;;;;;;;17.50;7.32;;;;;;;;;;5122239;27;20028;-78
2021/06/29 11:28:35;;;;;;;16.63;7.95;;;;;;;;;;5110126;28;20111;-78
2021/06/29 11:31:01;;;;;;;12.85;8.00;;;;;;;;;;5110654;28;20131;-75
2021/06/29 11:33:30;;;;;;;13.95;8.57;;;;;;;;;;5110167;28;20296;-78
2021/06/29 11:35:56;;;;;;;18.05;8.02;;;;;;;;;;5092240;28;20108;-77
2021/06/29 11:38:33;;;;;;;13.00;7.10;;;;;;;;;;5109864;28;20096;-75
2021/06/29 11:41:22;;;;;;;12.73;6.22;;;;;;;;;;5092242;28;20040;-78
2021/06/29 11:43:48;;;;;;;16.63;5.75;;;;;;;;;;5096878;28;20035;-77
2021/06/29 11:46:33;;;;;;;17.65;5.70;;;;;;;;;;5131370;28;20027;-78
2021/06/29 11:49:08;;;;;;;16.33;5.90;;;;;;;;;;5089327;28;20036;-78
2021/06/29 11:51:53;;;;;;;16.00;5.85;;;;;;;;;;5089687;28;20052;-78
2021/06/29 11:54:25;;;;;;;13.60;5.40;;;;;;;;;;5090156;28;20052;-78
2021/06/29 11:56:51;;;;;;;15.45;6.38;;;;;;;;;;5106302;28;20073;-76
2021/06/29 11:59:30;;;;;;;9.77;4.82;;;;;;;;;;5109657;28;20596;-78
2021/06/29 12:02:20;;;;;;;14.23;4.82;;;;;;;;;;5116914;28;20088;-76
2021/06/29 12:05:02;;;;;;;10.35;4.35;;;;;;;;;;5100856;28;20075;-77
2021/06/29 12:07:30;;;;;;;16.60;4.53;;;;;;;;;;5110508;28;20109;-76
2021/06/29 12:09:56;;;;;;;12.80;4.43;;;;;;;;;;5109735;28;20055;-78
2021/06/29 12:12:26;;;;;;;11.57;4.78;;;;;;;;;;5112349;28;20035;-77
2021/06/29 12:15:01;;;;;;;13.30;4.60;;;;;;;;;;5114581;28;20144;-77
2021/06/29 12:17:28;;;;;;;20.80;4.75;;;;;;;;;;5114210;28;20031;-77
2021/06/29 12:19:54;;;;;;;;;;;;;;;;;;5114958;28;20016;-77
2021/06/29 12:22:30;;;;;;;10.73;4.45;;;;;;;;;;5120229;27;19968;-77
2021/06/29 12:24:56;;;;;;;13.18;4.00;;;;;;;;;;5134956;27;20069;-77
2021/06/29 12:27:22;;;;;;;10.80;4.18;;;;;;;;;;5131839;27;20026;-77
2021/06/29 12:29:48;;;;;;;10.82;4.20;;;;;;;;;;5095639;28;20118;-77
2021/06/29 12:32:25;;;;;;;10.40;4.00;;;;;;;;;;5112989;28;20031;-75
2021/06/29 12:34:52;;;;;;;13.02;4.40;;;;;;;;;;5114202;28;20028;-77
2021/06/29 12:37:18;;;;;;;15.80;4.70;;;;;;;;;;5114107;28;20031;-78
2021/06/29 12:39:45;;;;;;;15.32;3.83;;;;;;;;;;5114289;28;20028;-77
2021/06/29 12:42:12;;;;;;;15.52;4.13;;;;;;;;;;5113525;27;20035;-79
2021/06/29 12:44:39;;;;;;;10.15;4.45;;;;;;;;;;5113526;28;20461;-78
2021/06/29 12:47:05;;;;;;;;;;;;;;;;;;5114179;28;20077;-76
2021/06/29 12:49:33;;;;;;;24.00;5.10;;;;;;;;;;5113767;28;19903;-76
2021/06/29 12:52:02;;;;;;;13.70;5.20;;;;;;;;;;5113310;28;20027;-77
2021/06/29 12:54:29;;;;;;;32.05;5.88;;;;;;;;;;5112658;28;20057;-77
2021/06/29 12:56:56;;;;;;;12.40;4.72;;;;;;;;;;5113691;28;20087;-77
2021/06/29 12:59:22;;;;;;;;;;;;;;;;;;5115373;27;20032;-75
2021/06/29 13:01:53;;;;;;;17.95;5.22;;;;;;;;;;5113001;28;19919;-78
2021/06/29 13:04:21;;;;;;;17.75;4.95;;;;;;;;;;5112020;28;20123;-75
2021/06/29 13:06:48;;;;;;;12.25;4.80;;;;;;;;;;5113480;28;20011;-78
2021/06/29 13:09:18;;;;;;;24.50;5.30;;;;;;;;;;5125149;27;20027;-78
2021/06/29 13:12:02;;;;;;;12.23;4.40;;;;;;;;;;5133447;27;20027;-77
2021/06/29 13:14:28;;;;;;;10.27;4.65;;;;;;;;;;5132479;27;20545;-79
2021/06/29 13:16:54;;;;;;;;;;;;;;;;;;5116132;27;20070;-78
2021/06/29 13:19:21;;;;;;;13.70;4.63;;;;;;;;;;5113294;28;19947;-78
2021/06/29 13:21:54;;;;;;;13.52;4.57;;;;;;;;;;5112909;28;20273;-76
2021/06/29 13:24:20;;;;;;;12.98;4.65;;;;;;;;;;5111252;28;20490;-77
2021/06/29 13:26:57;;;;;;;14.70;4.77;;;;;;;;;;5112158;28;20028;-76
2021/06/29 13:29:25;;;;;;;15.80;4.78;;;;;;;;;;5113058;28;20026;-76
2021/06/29 13:31:51;;;;;;;25.10;5.43;;;;;;;;;;5113462;27;20023;-77
2021/06/29 13:34:18;;;;;;;9.80;4.57;;;;;;;;;;5113043;28;20462;-76
2021/06/29 13:36:44;;;;;;;14.48;4.53;;;;;;;;;;5111210;28;20475;-77
2021/06/29 13:39:10;;;;;;;10.88;5.32;;;;;;;;;;5112972;28;20031;-77
2021/06/29 13:41:37;;;;;;;11.57;4.32;;;;;;;;;;5121473;27;20046;-76
2021/06/29 13:44:11;;;;;;;14.63;4.60;;;;;;;;;;5133424;27;20035;-76
2021/06/29 13:46:37;;;;;;;10.55;5.07;;;;;;;;;;5131902;27;20385;-76
2021/06/29 13:49:23;;;;;;;9.93;4.85;;;;;;;;;;5114980;27;20061;-76
2021/06/29 13:51:50;;;;;;;16.60;5.07;;;;;;;;;;5128787;27;20031;-76
2021/06/29 13:54:17;;;;;;;13.25;5.03;;;;;;;;;;5112368;28;20132;-78
2021/06/29 13:56:43;;;;;;;12.40;5.07;;;;;;;;;;5095515;27;20038;-77
2021/06/29 13:59:09;;;;;;;10.18;4.75;;;;;;;;;;5131999;27;20040;-76
2021/06/29 14:01:35;;;;;;;15.27;5.95;;;;;;;;;;5132644;27;20035;-77
2021/06/29 14:04:02;;;;;;;8.10;4.75;;;;;;;;;;5132441;27;20393;-77
2021/06/29 14:06:28;;;;;;;;;;;;;;;;;;5133489;27;20163;-77
2021/06/29 14:09:05;;;;;;;10.70;5.10;;;;;;;;;;5131222;27;19998;-80
2021/06/29 14:11:35;;;;;;;8.38;4.95;;;;;;;;;;5132732;27;20144;-77
2021/06/29 14:14:01;;;;;;;10.45;4.60;;;;;;;;;;5114380;27;20023;-77
2021/06/29 14:16:27;;;;;;;11.83;4.60;;;;;;;;;;5114191;27;20031;-77
2021/06/29 14:18:54;;;;;;;8.65;4.20;;;;;;;;;;5131583;27;20035;-77
2021/06/29 14:21:22;;;;;;;9.40;4.32;;;;;;;;;;5132614;27;20031;-79
2021/06/29 14:23:49;;;;;;;11.10;4.82;;;;;;;;;;5116124;27;20206;-77
2021/06/29 14:26:16;;;;;;;14.60;4.45;;;;;;;;;;5093585;28;20129;-77
2021/06/29 14:28:42;;;;;;;9.27;4.47;;;;;;;;;;5111098;28;20059;-77
2021/06/29 14:31:08;;;;;;;9.75;4.60;;;;;;;;;;5111927;28;20077;-78
2021/06/29 14:33:36;;;;;;;9.38;4.43;;;;;;;;;;5111604;28;20045;-77
2021/06/29 14:36:03;;;;;;;6.88;4.18;;;;;;;;;;5131728;27;20389;-77